sensor_id;sensor_type;location;lat;lon;timestamp;P1;durP1;ratioP1;P2;durP2;ratioP2
2434;SDS011;1228;51.022;6.764;2023-12-07T00:01:33;46.10;;;28.53;;
2434;SDS011;1228;51.022;6.764;2023-12-07T00:03:59;47.30;;;26.97;;
2434;SDS011;1228;51.022;6.764;2023-12-07T00:06:25;47.87;;;26.17;;
2434;SDS011;1228;51.022;6.764;2023-12-07T00:08:51;43.43;;;27.10;;
2434;SDS011;1228;51.022;6.764;2023-12-07T00:11:17;38.23;;;25.67;;
2434;SDS011;1228;51.022;6.764;2023-12-07T00:13:42;42.83;;;27.17;;
2434;SDS011;1228;51.022;6.764;2023-12-07T00:16:08;46.73;;;27.57;;
2434;SDS011;1228;51.022;6.764;2023-12-07T00:18:34;46.67;;;27.17;;
2434;SDS011;1228;51.022;6.764;2023-12-07T00:21:00;45.63;;;27.77;;
2434;SDS011;1228;51.022;6.764;2023-12-07T00:23:26;45.73;;;27.93;;
2434;SDS011;1228;51.022;6.764;2023-12-07T00:25:51;48.90;;;27.13;;
2434;SDS011;1228;51.022;6.764;2023-12-07T00:28:17;45.77;;;27.20;;
2434;SDS011;1228;51.022;6.764;2023-12-07T00:30:43;47.93;;;29.03;;
2434;SDS011;1228;51.022;6.764;2023-12-07T00:33:08;48.03;;;28.57;;
2434;SDS011;1228;51.022;6.764;2023-12-07T00:35:34;54.93;;;29.30;;
2434;SDS011;1228;51.022;6.764;2023-12-07T00:38:00;52.33;;;28.23;;
2434;SDS011;1228;51.022;6.764;2023-12-07T00:40:26;46.50;;;28.40;;
2434;SDS011;1228;51.022;6.764;2023-12-07T00:42:52;63.90;;;30.80;;
2434;SDS011;1228;51.022;6.764;2023-12-07T00:45:18;50.40;;;28.93;;
2434;SDS011;1228;51.022;6.764;2023-12-07T00:47:43;48.60;;;29.97;;
2434;SDS011;1228;51.022;6.764;2023-12-07T00:50:11;54.93;;;30.50;;
2434;SDS011;1228;51.022;6.764;2023-12-07T00:52:39;56.07;;;29.27;;
2434;SDS011;1228;51.022;6.764;2023-12-07T00:55:04;58.23;;;31.27;;
2434;SDS011;1228;51.022;6.764;2023-12-07T00:57:30;60.50;;;30.53;;
2434;SDS011;1228;51.022;6.764;2023-12-07T00:59:56;50.63;;;29.57;;
2434;SDS011;1228;51.022;6.764;2023-12-07T01:02:22;57.30;;;31.03;;
2434;SDS011;1228;51.022;6.764;2023-12-07T01:04:48;60.77;;;30.30;;
2434;SDS011;1228;51.022;6.764;2023-12-07T01:07:13;47.47;;;28.13;;
2434;SDS011;1228;51.022;6.764;2023-12-07T01:09:39;58.00;;;31.67;;
2434;SDS011;1228;51.022;6.764;2023-12-07T01:12:05;52.07;;;28.83;;
2434;SDS011;1228;51.022;6.764;2023-12-07T01:14:30;59.37;;;32.30;;
2434;SDS011;1228;51.022;6.764;2023-12-07T01:16:56;54.83;;;28.87;;
2434;SDS011;1228;51.022;6.764;2023-12-07T01:19:21;47.40;;;28.67;;
2434;SDS011;1228;51.022;6.764;2023-12-07T01:21:47;55.20;;;28.67;;
2434;SDS011;1228;51.022;6.764;2023-12-07T01:24:13;49.20;;;25.50;;
2434;SDS011;1228;51.022;6.764;2023-12-07T01:26:38;49.80;;;27.87;;
2434;SDS011;1228;51.022;6.764;2023-12-07T01:29:04;55.83;;;27.47;;
2434;SDS011;1228;51.022;6.764;2023-12-07T01:31:29;51.30;;;26.83;;
2434;SDS011;1228;51.022;6.764;2023-12-07T01:33:55;48.30;;;25.17;;
2434;SDS011;1228;51.022;6.764;2023-12-07T01:36:21;49.70;;;26.83;;
2434;SDS011;1228;51.022;6.764;2023-12-07T01:38:46;50.00;;;27.03;;
2434;SDS011;1228;51.022;6.764;2023-12-07T01:41:12;48.87;;;27.53;;
2434;SDS011;1228;51.022;6.764;2023-12-07T01:43:38;47.60;;;26.43;;
2434;SDS011;1228;51.022;6.764;2023-12-07T01:46:10;48.83;;;27.17;;
2434;SDS011;1228;51.022;6.764;2023-12-07T01:48:36;47.63;;;26.40;;
2434;SDS011;1228;51.022;6.764;2023-12-07T01:51:01;58.73;;;26.60;;
2434;SDS011;1228;51.022;6.764;2023-12-07T01:53:28;47.53;;;26.43;;
2434;SDS011;1228;51.022;6.764;2023-12-07T01:55:54;60.97;;;28.83;;
2434;SDS011;1228;51.022;6.764;2023-12-07T01:58:20;51.40;;;26.60;;
2434;SDS011;1228;51.022;6.764;2023-12-07T02:00:46;47.20;;;27.17;;
2434;SDS011;1228;51.022;6.764;2023-12-07T02:03:13;47.13;;;25.97;;
2434;SDS011;1228;51.022;6.764;2023-12-07T02:05:42;49.73;;;26.23;;
2434;SDS011;1228;51.022;6.764;2023-12-07T02:08:11;44.60;;;25.07;;
2434;SDS011;1228;51.022;6.764;2023-12-07T02:10:36;55.03;;;26.23;;
2434;SDS011;1228;51.022;6.764;2023-12-07T02:13:02;46.33;;;26.17;;
2434;SDS011;1228;51.022;6.764;2023-12-07T02:15:28;45.63;;;25.63;;
2434;SDS011;1228;51.022;6.764;2023-12-07T02:20:37;45.93;;;26.17;;
2434;SDS011;1228;51.022;6.764;2023-12-07T02:23:10;45.43;;;26.30;;
2434;SDS011;1228;51.022;6.764;2023-12-07T02:28:14;50.00;;;25.50;;
2434;SDS011;1228;51.022;6.764;2023-12-07T02:30:40;46.53;;;26.00;;
2434;SDS011;1228;51.022;6.764;2023-12-07T02:33:05;49.30;;;24.97;;
2434;SDS011;1228;51.022;6.764;2023-12-07T02:35:31;46.47;;;25.57;;
2434;SDS011;1228;51.022;6.764;2023-12-07T02:37:57;57.93;;;26.27;;
2434;SDS011;1228;51.022;6.764;2023-12-07T02:40:24;46.37;;;27.20;;
2434;SDS011;1228;51.022;6.764;2023-12-07T02:42:52;54.13;;;27.07;;
2434;SDS011;1228;51.022;6.764;2023-12-07T02:45:19;53.57;;;26.73;;
2434;SDS011;1228;51.022;6.764;2023-12-07T02:47:44;56.17;;;28.13;;
2434;SDS011;1228;51.022;6.764;2023-12-07T02:50:10;52.60;;;27.20;;
2434;SDS011;1228;51.022;6.764;2023-12-07T02:52:37;46.47;;;25.50;;
2434;SDS011;1228;51.022;6.764;2023-12-07T02:55:02;47.53;;;26.50;;
2434;SDS011;1228;51.022;6.764;2023-12-07T02:57:28;60.23;;;29.63;;
2434;SDS011;1228;51.022;6.764;2023-12-07T02:59:55;61.93;;;28.80;;
2434;SDS011;1228;51.022;6.764;2023-12-07T03:02:21;48.87;;;27.93;;
2434;SDS011;1228;51.022;6.764;2023-12-07T03:04:46;56.77;;;28.17;;
2434;SDS011;1228;51.022;6.764;2023-12-07T03:07:12;51.30;;;28.67;;
2434;SDS011;1228;51.022;6.764;2023-12-07T03:09:38;49.17;;;26.80;;
2434;SDS011;1228;51.022;6.764;2023-12-07T03:12:03;45.60;;;25.93;;
2434;SDS011;1228;51.022;6.764;2023-12-07T03:14:29;49.57;;;26.57;;
2434;SDS011;1228;51.022;6.764;2023-12-07T03:16:55;47.80;;;26.30;;
2434;SDS011;1228;51.022;6.764;2023-12-07T03:19:21;44.50;;;26.40;;
2434;SDS011;1228;51.022;6.764;2023-12-07T03:21:46;57.67;;;26.73;;
2434;SDS011;1228;51.022;6.764;2023-12-07T03:24:12;50.00;;;25.70;;
2434;SDS011;1228;51.022;6.764;2023-12-07T03:26:38;45.53;;;25.00;;
2434;SDS011;1228;51.022;6.764;2023-12-07T03:29:03;56.63;;;26.37;;
2434;SDS011;1228;51.022;6.764;2023-12-07T03:31:29;46.23;;;25.73;;
2434;SDS011;1228;51.022;6.764;2023-12-07T03:33:55;46.00;;;25.73;;
2434;SDS011;1228;51.022;6.764;2023-12-07T03:36:21;42.93;;;23.47;;
2434;SDS011;1228;51.022;6.764;2023-12-07T03:38:48;43.37;;;25.07;;
2434;SDS011;1228;51.022;6.764;2023-12-07T03:41:14;44.13;;;25.73;;
2434;SDS011;1228;51.022;6.764;2023-12-07T03:43:40;59.50;;;26.20;;
2434;SDS011;1228;51.022;6.764;2023-12-07T03:46:05;41.70;;;26.13;;
2434;SDS011;1228;51.022;6.764;2023-12-07T03:48:32;45.93;;;24.43;;
2434;SDS011;1228;51.022;6.764;2023-12-07T03:50:58;49.47;;;25.23;;
2434;SDS011;1228;51.022;6.764;2023-12-07T03:53:24;47.23;;;25.20;;
2434;SDS011;1228;51.022;6.764;2023-12-07T03:55:50;50.93;;;27.17;;
2434;SDS011;1228;51.022;6.764;2023-12-07T03:58:16;48.23;;;26.90;;
2434;SDS011;1228;51.022;6.764;2023-12-07T04:00:41;52.20;;;26.77;;
2434;SDS011;1228;51.022;6.764;2023-12-07T04:03:07;53.23;;;26.33;;
2434;SDS011;1228;51.022;6.764;2023-12-07T04:05:33;62.97;;;28.30;;
2434;SDS011;1228;51.022;6.764;2023-12-07T04:07:58;54.27;;;26.83;;
2434;SDS011;1228;51.022;6.764;2023-12-07T04:10:24;55.40;;;26.47;;
2434;SDS011;1228;51.022;6.764;2023-12-07T04:12:50;61.27;;;25.53;;
2434;SDS011;1228;51.022;6.764;2023-12-07T04:15:17;56.27;;;26.83;;
2434;SDS011;1228;51.022;6.764;2023-12-07T04:17:43;60.13;;;28.27;;
2434;SDS011;1228;51.022;6.764;2023-12-07T04:20:09;57.63;;;27.53;;
2434;SDS011;1228;51.022;6.764;2023-12-07T04:22:35;57.60;;;28.07;;
2434;SDS011;1228;51.022;6.764;2023-12-07T04:25:01;51.97;;;29.10;;
2434;SDS011;1228;51.022;6.764;2023-12-07T04:27:27;60.87;;;30.17;;
2434;SDS011;1228;51.022;6.764;2023-12-07T04:29:52;55.43;;;28.17;;
2434;SDS011;1228;51.022;6.764;2023-12-07T04:32:18;56.47;;;29.03;;
2434;SDS011;1228;51.022;6.764;2023-12-07T04:34:44;61.70;;;28.70;;
2434;SDS011;1228;51.022;6.764;2023-12-07T04:37:10;45.90;;;26.73;;
2434;SDS011;1228;51.022;6.764;2023-12-07T04:39:35;60.77;;;28.57;;
2434;SDS011;1228;51.022;6.764;2023-12-07T04:42:01;63.57;;;30.90;;
2434;SDS011;1228;51.022;6.764;2023-12-07T04:44:27;66.77;;;30.07;;
2434;SDS011;1228;51.022;6.764;2023-12-07T04:46:53;58.03;;;28.83;;
2434;SDS011;1228;51.022;6.764;2023-12-07T04:49:19;64.40;;;30.53;;
2434;SDS011;1228;51.022;6.764;2023-12-07T04:51:44;60.23;;;30.13;;
2434;SDS011;1228;51.022;6.764;2023-12-07T04:54:12;55.53;;;29.17;;
2434;SDS011;1228;51.022;6.764;2023-12-07T04:56:40;61.83;;;28.40;;
2434;SDS011;1228;51.022;6.764;2023-12-07T04:59:05;57.23;;;28.90;;
2434;SDS011;1228;51.022;6.764;2023-12-07T05:01:31;55.50;;;28.47;;
2434;SDS011;1228;51.022;6.764;2023-12-07T05:03:57;55.57;;;27.73;;
2434;SDS011;1228;51.022;6.764;2023-12-07T05:06:22;52.17;;;27.20;;
2434;SDS011;1228;51.022;6.764;2023-12-07T05:08:48;53.73;;;28.43;;
2434;SDS011;1228;51.022;6.764;2023-12-07T05:11:13;51.37;;;25.80;;
2434;SDS011;1228;51.022;6.764;2023-12-07T05:13:39;53.77;;;27.73;;
2434;SDS011;1228;51.022;6.764;2023-12-07T05:16:05;57.33;;;28.33;;
2434;SDS011;1228;51.022;6.764;2023-12-07T05:18:30;50.97;;;26.07;;
2434;SDS011;1228;51.022;6.764;2023-12-07T05:20:56;63.40;;;29.30;;
2434;SDS011;1228;51.022;6.764;2023-12-07T05:23:22;60.53;;;30.10;;
2434;SDS011;1228;51.022;6.764;2023-12-07T05:25:47;53.93;;;28.07;;
2434;SDS011;1228;51.022;6.764;2023-12-07T05:28:13;53.93;;;27.70;;
2434;SDS011;1228;51.022;6.764;2023-12-07T05:30:39;59.93;;;28.63;;
2434;SDS011;1228;51.022;6.764;2023-12-07T05:33:05;53.37;;;26.73;;
2434;SDS011;1228;51.022;6.764;2023-12-07T05:35:30;56.60;;;28.03;;
2434;SDS011;1228;51.022;6.764;2023-12-07T05:37:56;52.07;;;27.37;;
2434;SDS011;1228;51.022;6.764;2023-12-07T05:40:22;61.40;;;28.63;;
2434;SDS011;1228;51.022;6.764;2023-12-07T05:42:49;55.07;;;25.47;;
2434;SDS011;1228;51.022;6.764;2023-12-07T05:45:15;59.37;;;28.13;;
2434;SDS011;1228;51.022;6.764;2023-12-07T05:47:41;52.27;;;26.20;;
2434;SDS011;1228;51.022;6.764;2023-12-07T05:50:07;54.57;;;26.37;;
2434;SDS011;1228;51.022;6.764;2023-12-07T05:52:33;61.23;;;27.13;;
2434;SDS011;1228;51.022;6.764;2023-12-07T05:54:59;46.60;;;24.57;;
2434;SDS011;1228;51.022;6.764;2023-12-07T05:57:24;47.83;;;26.83;;
2434;SDS011;1228;51.022;6.764;2023-12-07T05:59:50;58.40;;;26.27;;
2434;SDS011;1228;51.022;6.764;2023-12-07T06:02:16;49.60;;;26.53;;
2434;SDS011;1228;51.022;6.764;2023-12-07T06:04:41;47.27;;;24.43;;
2434;SDS011;1228;51.022;6.764;2023-12-07T06:07:07;52.27;;;25.83;;
2434;SDS011;1228;51.022;6.764;2023-12-07T06:09:32;50.90;;;25.40;;
2434;SDS011;1228;51.022;6.764;2023-12-07T06:11:59;49.17;;;26.40;;
2434;SDS011;1228;51.022;6.764;2023-12-07T06:14:24;49.93;;;24.97;;
2434;SDS011;1228;51.022;6.764;2023-12-07T06:16:50;54.27;;;27.07;;
2434;SDS011;1228;51.022;6.764;2023-12-07T06:19:15;56.03;;;25.33;;
2434;SDS011;1228;51.022;6.764;2023-12-07T06:21:42;55.50;;;26.37;;
2434;SDS011;1228;51.022;6.764;2023-12-07T06:24:09;52.10;;;26.30;;
2434;SDS011;1228;51.022;6.764;2023-12-07T06:26:34;59.97;;;25.37;;
2434;SDS011;1228;51.022;6.764;2023-12-07T06:29:01;48.87;;;26.47;;
2434;SDS011;1228;51.022;6.764;2023-12-07T06:31:27;47.77;;;25.23;;
2434;SDS011;1228;51.022;6.764;2023-12-07T06:33:52;53.77;;;27.03;;
2434;SDS011;1228;51.022;6.764;2023-12-07T06:36:22;43.60;;;24.83;;
2434;SDS011;1228;51.022;6.764;2023-12-07T06:38:48;54.83;;;25.43;;
2434;SDS011;1228;51.022;6.764;2023-12-07T06:41:15;46.50;;;25.13;;
2434;SDS011;1228;51.022;6.764;2023-12-07T06:43:43;54.20;;;27.40;;
2434;SDS011;1228;51.022;6.764;2023-12-07T06:46:12;48.13;;;25.83;;
2434;SDS011;1228;51.022;6.764;2023-12-07T06:48:39;40.47;;;23.57;;
2434;SDS011;1228;51.022;6.764;2023-12-07T06:51:05;51.03;;;24.77;;
2434;SDS011;1228;51.022;6.764;2023-12-07T06:53:31;53.03;;;24.60;;
2434;SDS011;1228;51.022;6.764;2023-12-07T06:55:57;45.37;;;23.10;;
2434;SDS011;1228;51.022;6.764;2023-12-07T06:58:23;44.70;;;24.07;;
2434;SDS011;1228;51.022;6.764;2023-12-07T07:00:49;53.50;;;24.57;;
2434;SDS011;1228;51.022;6.764;2023-12-07T07:03:15;38.87;;;23.63;;
2434;SDS011;1228;51.022;6.764;2023-12-07T07:05:41;41.83;;;21.93;;
2434;SDS011;1228;51.022;6.764;2023-12-07T07:08:07;43.37;;;23.23;;
2434;SDS011;1228;51.022;6.764;2023-12-07T07:10:33;47.00;;;23.60;;
2434;SDS011;1228;51.022;6.764;2023-12-07T07:13:02;45.40;;;24.27;;
2434;SDS011;1228;51.022;6.764;2023-12-07T07:15:30;46.23;;;24.10;;
2434;SDS011;1228;51.022;6.764;2023-12-07T07:17:55;41.77;;;22.20;;
2434;SDS011;1228;51.022;6.764;2023-12-07T07:20:21;39.93;;;21.87;;
2434;SDS011;1228;51.022;6.764;2023-12-07T07:22:47;40.53;;;22.73;;
2434;SDS011;1228;51.022;6.764;2023-12-07T07:25:13;36.73;;;22.17;;
2434;SDS011;1228;51.022;6.764;2023-12-07T07:27:41;51.07;;;24.10;;
2434;SDS011;1228;51.022;6.764;2023-12-07T07:30:07;41.77;;;23.17;;
2434;SDS011;1228;51.022;6.764;2023-12-07T07:32:33;44.50;;;23.27;;
2434;SDS011;1228;51.022;6.764;2023-12-07T07:34:59;48.90;;;24.03;;
2434;SDS011;1228;51.022;6.764;2023-12-07T07:37:24;41.20;;;22.37;;
2434;SDS011;1228;51.022;6.764;2023-12-07T07:39:50;44.70;;;23.00;;
2434;SDS011;1228;51.022;6.764;2023-12-07T07:42:15;43.10;;;24.37;;
2434;SDS011;1228;51.022;6.764;2023-12-07T07:44:41;41.63;;;23.73;;
2434;SDS011;1228;51.022;6.764;2023-12-07T07:47:07;38.97;;;22.70;;
2434;SDS011;1228;51.022;6.764;2023-12-07T07:49:33;41.43;;;23.27;;
2434;SDS011;1228;51.022;6.764;2023-12-07T07:51:59;46.73;;;22.57;;
2434;SDS011;1228;51.022;6.764;2023-12-07T07:54:24;43.93;;;23.80;;
2434;SDS011;1228;51.022;6.764;2023-12-07T07:56:50;48.83;;;23.73;;
2434;SDS011;1228;51.022;6.764;2023-12-07T07:59:16;44.43;;;23.33;;
2434;SDS011;1228;51.022;6.764;2023-12-07T08:01:41;50.70;;;25.37;;
2434;SDS011;1228;51.022;6.764;2023-12-07T08:04:07;49.17;;;25.10;;
2434;SDS011;1228;51.022;6.764;2023-12-07T08:06:33;45.03;;;23.33;;
2434;SDS011;1228;51.022;6.764;2023-12-07T08:08:59;55.53;;;23.93;;
2434;SDS011;1228;51.022;6.764;2023-12-07T08:11:24;40.47;;;23.77;;
2434;SDS011;1228;51.022;6.764;2023-12-07T08:13:50;52.70;;;23.27;;
2434;SDS011;1228;51.022;6.764;2023-12-07T08:16:16;47.13;;;22.93;;
2434;SDS011;1228;51.022;6.764;2023-12-07T08:18:42;42.13;;;21.47;;
2434;SDS011;1228;51.022;6.764;2023-12-07T08:21:08;38.10;;;21.60;;
2434;SDS011;1228;51.022;6.764;2023-12-07T08:23:34;46.60;;;22.10;;
2434;SDS011;1228;51.022;6.764;2023-12-07T08:26:00;39.47;;;21.43;;
2434;SDS011;1228;51.022;6.764;2023-12-07T08:28:27;55.20;;;23.40;;
2434;SDS011;1228;51.022;6.764;2023-12-07T08:30:52;45.17;;;22.63;;
2434;SDS011;1228;51.022;6.764;2023-12-07T08:33:18;50.53;;;24.50;;
2434;SDS011;1228;51.022;6.764;2023-12-07T08:35:44;42.00;;;22.13;;
2434;SDS011;1228;51.022;6.764;2023-12-07T08:38:09;41.07;;;21.03;;
2434;SDS011;1228;51.022;6.764;2023-12-07T08:40:35;46.97;;;22.73;;
2434;SDS011;1228;51.022;6.764;2023-12-07T08:43:00;50.13;;;24.27;;
2434;SDS011;1228;51.022;6.764;2023-12-07T08:45:26;53.13;;;26.73;;
2434;SDS011;1228;51.022;6.764;2023-12-07T08:47:51;102.97;;;31.00;;
2434;SDS011;1228;51.022;6.764;2023-12-07T08:50:17;56.20;;;26.43;;
2434;SDS011;1228;51.022;6.764;2023-12-07T08:52:42;201.63;;;39.17;;
2434;SDS011;1228;51.022;6.764;2023-12-07T08:55:09;53.80;;;25.70;;
2434;SDS011;1228;51.022;6.764;2023-12-07T08:57:35;54.60;;;25.27;;
2434;SDS011;1228;51.022;6.764;2023-12-07T09:00:00;59.97;;;24.77;;
2434;SDS011;1228;51.022;6.764;2023-12-07T09:02:26;40.43;;;21.80;;
2434;SDS011;1228;51.022;6.764;2023-12-07T09:04:51;36.63;;;21.50;;
2434;SDS011;1228;51.022;6.764;2023-12-07T09:07:17;33.97;;;20.83;;
2434;SDS011;1228;51.022;6.764;2023-12-07T09:09:43;36.07;;;21.00;;
2434;SDS011;1228;51.022;6.764;2023-12-07T09:12:12;34.23;;;20.30;;
2434;SDS011;1228;51.022;6.764;2023-12-07T09:14:38;29.50;;;19.63;;
2434;SDS011;1228;51.022;6.764;2023-12-07T09:17:04;30.50;;;18.97;;
2434;SDS011;1228;51.022;6.764;2023-12-07T09:19:29;24.80;;;17.50;;
2434;SDS011;1228;51.022;6.764;2023-12-07T09:21:55;35.93;;;18.63;;
2434;SDS011;1228;51.022;6.764;2023-12-07T09:24:20;31.20;;;19.40;;
2434;SDS011;1228;51.022;6.764;2023-12-07T09:26:46;24.57;;;17.17;;
2434;SDS011;1228;51.022;6.764;2023-12-07T09:29:13;30.50;;;18.23;;
2434;SDS011;1228;51.022;6.764;2023-12-07T09:31:38;25.50;;;17.07;;
2434;SDS011;1228;51.022;6.764;2023-12-07T09:34:04;28.80;;;17.33;;
2434;SDS011;1228;51.022;6.764;2023-12-07T09:36:30;23.23;;;16.93;;
2434;SDS011;1228;51.022;6.764;2023-12-07T09:38:55;25.13;;;16.80;;
2434;SDS011;1228;51.022;6.764;2023-12-07T09:41:21;24.37;;;16.97;;
2434;SDS011;1228;51.022;6.764;2023-12-07T09:43:48;24.80;;;15.93;;
2434;SDS011;1228;51.022;6.764;2023-12-07T09:46:14;25.20;;;16.67;;
2434;SDS011;1228;51.022;6.764;2023-12-07T09:48:42;23.27;;;16.17;;
2434;SDS011;1228;51.022;6.764;2023-12-07T09:51:09;23.57;;;15.07;;
2434;SDS011;1228;51.022;6.764;2023-12-07T09:53:36;20.20;;;15.33;;
2434;SDS011;1228;51.022;6.764;2023-12-07T09:56:04;23.13;;;15.27;;
2434;SDS011;1228;51.022;6.764;2023-12-07T09:58:30;19.70;;;15.53;;
2434;SDS011;1228;51.022;6.764;2023-12-07T10:00:56;19.27;;;14.63;;
2434;SDS011;1228;51.022;6.764;2023-12-07T10:03:22;19.93;;;14.30;;
2434;SDS011;1228;51.022;6.764;2023-12-07T10:05:58;18.30;;;13.73;;
2434;SDS011;1228;51.022;6.764;2023-12-07T10:08:31;18.73;;;13.47;;
2434;SDS011;1228;51.022;6.764;2023-12-07T10:11:07;21.33;;;12.77;;
2434;SDS011;1228;51.022;6.764;2023-12-07T10:13:34;15.93;;;13.93;;
2434;SDS011;1228;51.022;6.764;2023-12-07T10:18:34;17.40;;;13.97;;
2434;SDS011;1228;51.022;6.764;2023-12-07T10:21:00;15.10;;;13.03;;
2434;SDS011;1228;51.022;6.764;2023-12-07T10:23:26;17.33;;;13.93;;
2434;SDS011;1228;51.022;6.764;2023-12-07T10:25:52;15.73;;;12.90;;
2434;SDS011;1228;51.022;6.764;2023-12-07T10:28:18;16.53;;;12.53;;
2434;SDS011;1228;51.022;6.764;2023-12-07T10:30:44;16.63;;;13.10;;
2434;SDS011;1228;51.022;6.764;2023-12-07T10:33:11;16.73;;;12.87;;
2434;SDS011;1228;51.022;6.764;2023-12-07T10:35:38;13.97;;;12.23;;
2434;SDS011;1228;51.022;6.764;2023-12-07T10:38:05;18.47;;;11.77;;
2434;SDS011;1228;51.022;6.764;2023-12-07T10:40:31;15.77;;;12.50;;
2434;SDS011;1228;51.022;6.764;2023-12-07T10:42:57;16.70;;;12.10;;
2434;SDS011;1228;51.022;6.764;2023-12-07T10:45:27;14.43;;;12.57;;
2434;SDS011;1228;51.022;6.764;2023-12-07T10:47:57;14.93;;;12.47;;
2434;SDS011;1228;51.022;6.764;2023-12-07T10:50:34;13.77;;;11.70;;
2434;SDS011;1228;51.022;6.764;2023-12-07T10:53:04;14.03;;;12.63;;
2434;SDS011;1228;51.022;6.764;2023-12-07T10:55:47;15.63;;;11.50;;
2434;SDS011;1228;51.022;6.764;2023-12-07T10:58:24;17.87;;;12.37;;
2434;SDS011;1228;51.022;6.764;2023-12-07T11:00:54;14.57;;;11.43;;
2434;SDS011;1228;51.022;6.764;2023-12-07T11:03:22;14.80;;;12.30;;
2434;SDS011;1228;51.022;6.764;2023-12-07T11:05:48;15.40;;;11.80;;
2434;SDS011;1228;51.022;6.764;2023-12-07T11:13:52;18.10;;;12.50;;
2434;SDS011;1228;51.022;6.764;2023-12-07T11:16:37;15.13;;;11.83;;
2434;SDS011;1228;51.022;6.764;2023-12-07T11:21:58;14.83;;;12.23;;
2434;SDS011;1228;51.022;6.764;2023-12-07T11:24:31;14.47;;;12.03;;
2434;SDS011;1228;51.022;6.764;2023-12-07T11:26:57;15.77;;;12.93;;
2434;SDS011;1228;51.022;6.764;2023-12-07T11:29:28;19.00;;;13.43;;
2434;SDS011;1228;51.022;6.764;2023-12-07T11:32:01;16.70;;;12.40;;
2434;SDS011;1228;51.022;6.764;2023-12-07T11:34:41;16.37;;;13.10;;
2434;SDS011;1228;51.022;6.764;2023-12-07T11:37:08;18.40;;;12.93;;
2434;SDS011;1228;51.022;6.764;2023-12-07T11:39:35;15.03;;;12.80;;
2434;SDS011;1228;51.022;6.764;2023-12-07T11:42:12;17.10;;;12.53;;
2434;SDS011;1228;51.022;6.764;2023-12-07T11:44:40;12.00;;;10.73;;
2434;SDS011;1228;51.022;6.764;2023-12-07T11:47:07;17.03;;;11.13;;
2434;SDS011;1228;51.022;6.764;2023-12-07T11:49:34;16.00;;;11.60;;
2434;SDS011;1228;51.022;6.764;2023-12-07T11:52:00;12.37;;;11.00;;
2434;SDS011;1228;51.022;6.764;2023-12-07T11:54:26;15.63;;;11.97;;
2434;SDS011;1228;51.022;6.764;2023-12-07T11:56:55;14.93;;;11.40;;
2434;SDS011;1228;51.022;6.764;2023-12-07T11:59:22;15.27;;;11.63;;
2434;SDS011;1228;51.022;6.764;2023-12-07T12:01:50;15.03;;;10.40;;
2434;SDS011;1228;51.022;6.764;2023-12-07T12:04:16;12.87;;;11.00;;
2434;SDS011;1228;51.022;6.764;2023-12-07T12:06:44;12.83;;;10.90;;
2434;SDS011;1228;51.022;6.764;2023-12-07T12:09:13;14.40;;;11.50;;
2434;SDS011;1228;51.022;6.764;2023-12-07T12:11:48;17.70;;;12.10;;
2434;SDS011;1228;51.022;6.764;2023-12-07T12:14:18;13.73;;;11.13;;
2434;SDS011;1228;51.022;6.764;2023-12-07T12:16:47;14.17;;;11.73;;
2434;SDS011;1228;51.022;6.764;2023-12-07T12:19:13;12.93;;;10.80;;
2434;SDS011;1228;51.022;6.764;2023-12-07T12:21:42;13.07;;;11.67;;
2434;SDS011;1228;51.022;6.764;2023-12-07T12:24:11;13.77;;;11.60;;
2434;SDS011;1228;51.022;6.764;2023-12-07T12:26:39;15.20;;;11.67;;
2434;SDS011;1228;51.022;6.764;2023-12-07T12:29:06;14.03;;;10.40;;
2434;SDS011;1228;51.022;6.764;2023-12-07T12:31:33;14.90;;;11.00;;
2434;SDS011;1228;51.022;6.764;2023-12-07T12:34:02;17.90;;;11.13;;
2434;SDS011;1228;51.022;6.764;2023-12-07T12:36:30;12.73;;;10.23;;
2434;SDS011;1228;51.022;6.764;2023-12-07T12:38:56;14.17;;;11.33;;
2434;SDS011;1228;51.022;6.764;2023-12-07T12:41:22;11.87;;;9.70;;
2434;SDS011;1228;51.022;6.764;2023-12-07T12:43:48;11.70;;;10.23;;
2434;SDS011;1228;51.022;6.764;2023-12-07T12:46:14;11.50;;;10.07;;
2434;SDS011;1228;51.022;6.764;2023-12-07T12:48:53;11.00;;;9.87;;
2434;SDS011;1228;51.022;6.764;2023-12-07T12:51:20;11.50;;;9.63;;
2434;SDS011;1228;51.022;6.764;2023-12-07T12:53:48;13.47;;;10.43;;
2434;SDS011;1228;51.022;6.764;2023-12-07T12:56:14;11.33;;;9.53;;
2434;SDS011;1228;51.022;6.764;2023-12-07T12:58:40;11.30;;;10.07;;
2434;SDS011;1228;51.022;6.764;2023-12-07T13:01:06;10.87;;;9.50;;
2434;SDS011;1228;51.022;6.764;2023-12-07T13:03:32;13.37;;;9.80;;
2434;SDS011;1228;51.022;6.764;2023-12-07T13:05:58;11.87;;;9.90;;
2434;SDS011;1228;51.022;6.764;2023-12-07T13:08:24;11.00;;;9.67;;
2434;SDS011;1228;51.022;6.764;2023-12-07T13:10:49;12.03;;;9.07;;
2434;SDS011;1228;51.022;6.764;2023-12-07T13:13:15;10.93;;;9.57;;
2434;SDS011;1228;51.022;6.764;2023-12-07T13:15:41;11.03;;;9.30;;
2434;SDS011;1228;51.022;6.764;2023-12-07T13:18:07;11.30;;;9.60;;
2434;SDS011;1228;51.022;6.764;2023-12-07T13:20:33;12.27;;;9.77;;
2434;SDS011;1228;51.022;6.764;2023-12-07T13:23:00;13.17;;;10.50;;
2434;SDS011;1228;51.022;6.764;2023-12-07T13:25:26;11.27;;;9.53;;
2434;SDS011;1228;51.022;6.764;2023-12-07T13:27:51;11.17;;;9.30;;
2434;SDS011;1228;51.022;6.764;2023-12-07T13:30:17;11.43;;;9.67;;
2434;SDS011;1228;51.022;6.764;2023-12-07T13:32:43;10.10;;;9.00;;
2434;SDS011;1228;51.022;6.764;2023-12-07T13:35:08;12.37;;;9.37;;
2434;SDS011;1228;51.022;6.764;2023-12-07T13:37:34;13.63;;;9.97;;
2434;SDS011;1228;51.022;6.764;2023-12-07T13:40:01;11.57;;;8.63;;
2434;SDS011;1228;51.022;6.764;2023-12-07T13:42:29;9.67;;;8.60;;
2434;SDS011;1228;51.022;6.764;2023-12-07T13:44:56;11.33;;;9.17;;
2434;SDS011;1228;51.022;6.764;2023-12-07T13:47:23;13.73;;;9.43;;
2434;SDS011;1228;51.022;6.764;2023-12-07T13:49:53;15.10;;;8.17;;
2434;SDS011;1228;51.022;6.764;2023-12-07T13:52:20;13.33;;;9.27;;
2434;SDS011;1228;51.022;6.764;2023-12-07T13:54:46;10.13;;;9.07;;
2434;SDS011;1228;51.022;6.764;2023-12-07T13:57:11;9.87;;;8.87;;
2434;SDS011;1228;51.022;6.764;2023-12-07T13:59:37;10.70;;;8.90;;
2434;SDS011;1228;51.022;6.764;2023-12-07T14:02:03;11.63;;;9.10;;
2434;SDS011;1228;51.022;6.764;2023-12-07T14:04:29;10.43;;;9.20;;
2434;SDS011;1228;51.022;6.764;2023-12-07T14:07:06;11.70;;;9.63;;
2434;SDS011;1228;51.022;6.764;2023-12-07T14:09:36;10.23;;;9.23;;
2434;SDS011;1228;51.022;6.764;2023-12-07T14:12:03;12.43;;;9.73;;
2434;SDS011;1228;51.022;6.764;2023-12-07T14:14:29;12.70;;;10.00;;
2434;SDS011;1228;51.022;6.764;2023-12-07T14:16:54;16.90;;;10.30;;
2434;SDS011;1228;51.022;6.764;2023-12-07T14:19:20;12.57;;;10.70;;
2434;SDS011;1228;51.022;6.764;2023-12-07T14:21:46;13.90;;;9.97;;
2434;SDS011;1228;51.022;6.764;2023-12-07T14:24:12;11.03;;;9.90;;
2434;SDS011;1228;51.022;6.764;2023-12-07T14:26:38;11.53;;;10.20;;
2434;SDS011;1228;51.022;6.764;2023-12-07T14:29:07;12.73;;;9.90;;
2434;SDS011;1228;51.022;6.764;2023-12-07T14:31:34;12.13;;;9.77;;
2434;SDS011;1228;51.022;6.764;2023-12-07T14:34:02;11.43;;;9.30;;
2434;SDS011;1228;51.022;6.764;2023-12-07T14:36:28;15.20;;;10.03;;
2434;SDS011;1228;51.022;6.764;2023-12-07T14:38:54;10.93;;;9.80;;
2434;SDS011;1228;51.022;6.764;2023-12-07T14:41:20;13.20;;;10.40;;
2434;SDS011;1228;51.022;6.764;2023-12-07T14:43:47;12.43;;;11.10;;
2434;SDS011;1228;51.022;6.764;2023-12-07T14:46:13;12.07;;;9.63;;
2434;SDS011;1228;51.022;6.764;2023-12-07T14:48:39;13.57;;;9.90;;
2434;SDS011;1228;51.022;6.764;2023-12-07T14:51:04;13.20;;;10.20;;
2434;SDS011;1228;51.022;6.764;2023-12-07T14:53:30;14.50;;;11.83;;
2434;SDS011;1228;51.022;6.764;2023-12-07T14:55:56;13.73;;;10.73;;
2434;SDS011;1228;51.022;6.764;2023-12-07T14:58:23;13.53;;;10.60;;
2434;SDS011;1228;51.022;6.764;2023-12-07T15:00:50;14.00;;;10.93;;
2434;SDS011;1228;51.022;6.764;2023-12-07T15:03:16;18.00;;;12.33;;